Flight Track Log - Related Links

Times and Time Zones

All times are in EDT time to prevent confusion due to time zone crossing. See the ASQ6151 flight status page for this flight to view local times or setup timezone preferences in your user account.

Time Position Orientation Groundspeed Altitude Reporting Facility
EDT Latitude Longitude Course Direction KTS MPH feet Rate Location/Type
Fri 10:03:44 PM 32.2050 -81.1836 North 255 293 6,500  Level Jacksonville Center
Fri 10:04:44 PM 32.2678 -81.1925 353° North 228 262 9,200 2,300 Climbing Jacksonville Center
Fri 10:05:44 PM 32.3308 -81.2108 346° North 233 268 11,100 1,600 Climbing Jacksonville Center
Fri 10:06:44 PM 32.4189 -81.2536 338° Northwest 285 328 12,400 1,150 Climbing Jacksonville Center
Fri 10:07:00 PM 32.6890 -81.1500 North  Level FlightAware Approximate
Fri 10:07:44 PM 32.5092 -81.2939 339° North 336 387 13,400  Level Jacksonville Center
Fri 10:08:00 PM 32.7851 -81.1394 North  Level FlightAware Approximate
Fri 10:08:44 PM 32.5953 -81.3317 340° North 355 409 14,700  Level Jacksonville Center
Fri 10:09:00 PM 32.8812 -81.1274 North  Level FlightAware Approximate
Fri 10:09:44 PM 32.6939 -81.3744 340° North 360 414 16,200  Level Jacksonville Center
Fri 10:10:44 PM 32.7864 -81.4197 338° Northwest 365 420 17,600 1,300 Climbing Jacksonville Center
Fri 10:11:44 PM 32.8850 -81.4628 340° North 365 420 18,800 1,150 Climbing Jacksonville Center
Fri 10:12:44 PM 32.9878 -81.5083 340° North 378 435 19,900 1,050 Climbing Jacksonville Center
Fri 10:13:44 PM 33.0989 -81.5611 338° Northwest 378 435 20,900 1,000 Climbing Jacksonville Center
Fri 10:14:44 PM 33.2039 -81.6117 338° Northwest 393 452 21,900 1,006 Climbing Jacksonville Center
Fri 10:16:25 PM 33.3919 -81.6950 340° North 409 471 23,600 1,006 Climbing Atlanta Center
Fri 10:17:25 PM 33.4994 -81.7469 338° Northwest 420 483 24,600 1,100 Climbing Atlanta Center
Fri 10:18:25 PM 33.6131 -81.7989 339° North 420 483 25,800 1,200 Climbing Atlanta Center
Fri 10:19:25 PM 33.7247 -81.8508 339° North 420 483 27,000 1,250 Climbing Atlanta Center
Fri 10:20:25 PM 33.8236 -81.8958 339° North 428 493 28,300 1,250 Climbing Atlanta Center
Fri 10:21:25 PM 33.9350 -81.9456 340° North 428 493 29,500 1,250 Climbing Atlanta Center
Fri 10:22:25 PM 34.0444 -82.0006 337° Northwest 422 486 30,800 1,250 Climbing Atlanta Center
Fri 10:23:25 PM 34.1558 -82.0506 340° North 422 486 32,000 1,250 Climbing Atlanta Center
Fri 10:24:25 PM 34.2675 -82.1058 338° Northwest 422 486 33,300 1,250 Climbing Atlanta Center
Fri 10:25:25 PM 34.3789 -82.1586 339° North 422 486 34,500 1,200 Climbing Atlanta Center
Fri 10:26:25 PM 34.4925 -82.2142 338° Northwest 428 493 35,700 750 Climbing Atlanta Center
Fri 10:27:25 PM 34.6058 -82.2672 339° North 433 498 36,000 150 Climbing Atlanta Center
Fri 10:28:25 PM 34.7278 -82.3278 338° Northwest 448 516 36,000  Level Atlanta Center
Fri 10:29:25 PM 34.8539 -82.3886 338° Northwest 468 539 36,000  Level Atlanta Center
Fri 10:30:25 PM 34.9736 -82.4444 339° North 468 539 36,000  Level Atlanta Center
Fri 10:31:25 PM 35.1078 -82.5078 339° North 475 547 36,000  Level Atlanta Center
Fri 10:32:25 PM 35.2211 -82.5667 337° Northwest 480 552 36,000  Level Atlanta Center
Fri 10:33:25 PM 35.3514 -82.6281 339° North 473 544 36,000  Level Atlanta Center
Fri 10:34:25 PM 35.4731 -82.6897 338° Northwest 468 539 36,000  Level Atlanta Center
Fri 10:35:25 PM 35.5989 -82.7489 339° North 475 547 36,000  Level Atlanta Center
Fri 10:36:25 PM 35.7225 -82.8108 338° Northwest 475 547 36,000  Level Atlanta Center
Fri 10:37:25 PM 35.8461 -82.8706 339° North 475 547 36,000  Level Atlanta Center
Fri 10:38:25 PM 35.9697 -82.9331 338° Northwest 475 547 36,000  Level Atlanta Center
Fri 10:39:25 PM 36.0956 -82.9928 339° North 475 547 36,000  Level Atlanta Center
Fri 10:41:36 PM 36.3631 -83.1272 338° Northwest 476 548 36,000  Level Indianapolis Center
Fri 10:42:37 PM 36.4858 -83.1881 338° Northwest 471 542 36,000  Level Indianapolis Center
Fri 10:43:38 PM 36.6111 -83.2511 338° Northwest 478 550 36,000  Level Indianapolis Center
Fri 10:44:39 PM 36.7339 -83.3131 338° Northwest 473 544 36,000  Level Indianapolis Center
Fri 10:45:40 PM 36.8572 -83.3758 338° Northwest 473 544 36,000  Level Indianapolis Center
Fri 10:46:41 PM 36.9806 -83.4378 338° Northwest 472 543 36,000  Level Indianapolis Center
Fri 10:47:42 PM 37.1036 -83.5008 338° Northwest 471 542 36,000  Level Indianapolis Center
Fri 10:48:43 PM 37.2272 -83.5644 338° Northwest 477 549 36,000  Level Indianapolis Center
Fri 10:49:45 PM 37.3500 -83.6269 338° Northwest 474 545 36,000  Level Indianapolis Center
Fri 10:50:46 PM 37.4731 -83.6919 337° Northwest 475 547 36,000  Level Indianapolis Center
Fri 10:51:47 PM 37.5969 -83.7561 338° Northwest 478 550 36,000  Level Indianapolis Center
Fri 10:52:48 PM 37.7164 -83.8250 335° Northwest 472 543 36,000  Level Indianapolis Center
Fri 10:53:49 PM 37.8342 -83.9019 333° Northwest 474 545 36,000  Level Indianapolis Center
Fri 10:54:50 PM 37.9711 -83.9908 333° Northwest 472 543 36,000  Level Indianapolis Center
Fri 10:55:51 PM 38.0878 -84.0681 332° Northwest 472 543 36,000  Level Indianapolis Center
Fri 10:56:52 PM 38.2078 -84.1414 334° Northwest 476 548 36,000  Level Indianapolis Center
Fri 10:57:53 PM 38.3242 -84.2189 332° Northwest 471 542 36,000  Level Indianapolis Center
Fri 10:58:54 PM 38.4425 -84.2956 333° Northwest 474 545 36,000  Level Indianapolis Center
Fri 10:59:55 PM 38.5594 -84.3708 333° Northwest 471 542 36,000  Level Indianapolis Center
Fri 11:00:56 PM 38.6828 -84.4519 333° Northwest 474 545 36,000  Level Indianapolis Center
Fri 11:01:57 PM 38.8006 -84.5311 332° Northwest 474 545 36,000  Level Indianapolis Center
Fri 11:02:58 PM 38.9189 -84.6078 333° Northwest 471 542 36,000  Level Indianapolis Center
Fri 11:04:00 PM 39.0386 -84.6883 332° Northwest 479 551 36,000  Level Indianapolis Center
Fri 11:05:01 PM 39.1575 -84.7672 333° Northwest 475 547 36,000  Level Indianapolis Center
Fri 11:06:02 PM 39.2756 -84.8453 333° Northwest 472 543 36,000  Level Indianapolis Center
Fri 11:07:03 PM 39.3964 -84.9269 332° Northwest 476 548 36,000  Level Indianapolis Center
Fri 11:08:04 PM 39.5131 -85.0056 333° Northwest 474 545 36,000  Level Indianapolis Center
Fri 11:09:05 PM 39.6294 -85.0847 332° Northwest 475 547 36,000  Level Indianapolis Center
Fri 11:10:06 PM 39.7475 -85.1639 333° Northwest 477 549 36,000  Level Indianapolis Center
Fri 11:11:07 PM 39.8622 -85.2428 332° Northwest 474 545 36,000  Level Indianapolis Center
Fri 11:12:08 PM 39.9781 -85.3222 332° Northwest 474 545 36,000  Level Indianapolis Center
Fri 11:13:09 PM 40.0942 -85.4019 332° Northwest 476 548 36,000  Level Indianapolis Center
Fri 11:14:09 PM 40.2100 -85.4806 333° Northwest 476 548 36,000  Level Chicago Center
Fri 11:15:11 PM 40.3458 -85.5817 330° Northwest 472 543 36,000  Level Chicago Center
Fri 11:16:12 PM 40.4386 -85.7008 316° Northwest 471 542 36,000  Level Chicago Center
Fri 11:17:13 PM 40.5311 -85.8236 315° West 474 545 36,000 -590 Level Chicago Center
Fri 11:18:14 PM 40.6222 -85.9444 315° West 470 541 34,800 -1,279 Descending Chicago Center
Fri 11:19:15 PM 40.7061 -86.0578 314° West 466 536 33,400 -1,967 Descending Chicago Center
Fri 11:20:16 PM 40.7958 -86.1775 315° West 461 531 30,800 -2,951 Descending Chicago Center
Fri 11:21:17 PM 40.9019 -86.3208 314° West 457 526 27,400 -2,902 Descending Chicago Center
Fri 11:22:18 PM 40.9869 -86.4356 314° West 444 511 24,900 -2,410 Descending Chicago Center
Fri 11:23:19 PM 41.0667 -86.5428 315° West 417 480 22,500 -2,164 Descending Chicago Center
Fri 11:24:20 PM 41.1453 -86.6500 314° West 406 467 20,500 -2,066 Descending Chicago Center
Fri 11:25:21 PM 41.2278 -86.7617 315° West 427 491 18,300 -2,293 Descending Chicago Center
Fri 11:26:23 PM 41.3083 -86.8728 314° West 424 488 15,800 -2,459 Descending Chicago Center
Fri 11:27:23 PM 41.3867 -86.9797 314° West 410 472 13,300 -2,164 Descending Chicago Center
Fri 11:28:25 PM 41.4606 -87.0808 314° West 389 448 11,400 -1,171 Descending Chicago Center
Fri 11:29:26 PM 41.5436 -87.2017 313° West 372 428 10,900 -246 Descending Chicago Center
Fri 11:30:27 PM 41.6108 -87.3086 310° West 376 433 10,900  Level Chicago Center
Fri 11:31:28 PM 41.6761 -87.4131 310° West 371 427 10,900 -246 Level Chicago Center
Fri 11:32:29 PM 41.7400 -87.5114 311° West 358 412 10,400 -787 Descending Chicago Center
Fri 11:33:30 PM 41.7931 -87.5947 311° West 302 348 9,300 -1,082 Descending Chicago Center
Fri 11:35:00 PM 41.8947 -87.7781 323° Northwest  Level FlightAware Approximate
Fri 11:42:00 PM 41.9667 -87.9000 304° West  Level FlightAware Approximate
Fri 11:43:00 PM 41.9817 -87.9067 304° West  Level Estimated
Fri 11:44:00 PM 41.9817 -87.9067 304° West  Level Estimated
Fri 11:45:00 PM 41.9817 -87.9067 304° West  Level Estimated
Fri 11:46:00 PM 41.9817 -87.9067 304° West  Level Estimated
Fri 11:47:00 PM 41.9817 -87.9067 304° West  Level Estimated
Fri 11:48:00 PM 41.9817 -87.9067 304° West  Level Estimated
Fri 11:49:00 PM 41.9817 -87.9067 304° West  Level Estimated
Fri 11:50:00 PM 41.9817 -87.9067 304° West  Level Estimated
Fri 11:51:00 PM 41.9817 -87.9067 304° West  Level Estimated
Fri 11:52:00 PM 41.9817 -87.9067 304° West  Level Estimated
Fri 11:53:00 PM 41.9817 -87.9067 304° West  Level Estimated
Fri 11:54:00 PM 41.9817 -87.9067 304° West  Level Estimated
Fri 11:55:00 PM 41.9817 -87.9067 304° West  Level Estimated
Fri 11:56:00 PM 41.9817 -87.9067 304° West  Level Estimated

Login

Don't have an account? Register now (free) for customized features, flight alerts, and more!